Charbonneau, North Dakota
Current Conditions -  °F | °C
As of 6:52 AM on Friday 24 Oct 2014 (Local Time) from KISN Reporting Station
Broken Clouds Broken Clouds  
Wind Chill: 39°   Ceiling: 10000
Heat Index: 42°   Visibility: 10mi
Dew Point: 36°   Wind: 5mph
Humidity: 79%   Direction: 200°SSW
Pressure: 29.82"   Gusts: NA
Location:  47.8581°N, 103.643°W
Report Text: KISN 241152Z AUTO 20004KT 10SM BKN100 06/02 A2982 RMK AO2 SLP107 T00560022 10083 20033 51010
Loading
Personal Weather Stations






























Interactive Weather Map
Tropical Storm Tracking
New forecast layout! Learn more

10-Day Weather Forecast

Advertisements
Track Severe Weather on mobile